sensor_id;sensor_type;location;lat;lon;timestamp;P1;durP1;ratioP1;P2;durP2;ratioP2
59336;SDS011;45115;52.002;4.686;2023-09-08T00:00:05;20.33;;;12.82;;
59336;SDS011;45115;52.002;4.686;2023-09-08T00:02:34;19.20;;;12.52;;
59336;SDS011;45115;52.002;4.686;2023-09-08T00:05:01;21.38;;;14.10;;
59336;SDS011;45115;52.002;4.686;2023-09-08T00:07:28;19.83;;;13.70;;
59336;SDS011;45115;52.002;4.686;2023-09-08T00:09:54;21.30;;;13.93;;
59336;SDS011;45115;52.002;4.686;2023-09-08T00:12:23;23.88;;;14.93;;
59336;SDS011;45115;52.002;4.686;2023-09-08T00:14:49;21.88;;;14.20;;
59336;SDS011;45115;52.002;4.686;2023-09-08T00:17:16;20.67;;;13.02;;
59336;SDS011;45115;52.002;4.686;2023-09-08T00:19:43;19.85;;;13.30;;
59336;SDS011;45115;52.002;4.686;2023-09-08T00:22:10;22.23;;;13.77;;
59336;SDS011;45115;52.002;4.686;2023-09-08T00:24:37;23.90;;;14.20;;
59336;SDS011;45115;52.002;4.686;2023-09-08T00:27:03;22.85;;;13.70;;
59336;SDS011;45115;52.002;4.686;2023-09-08T00:29:32;21.80;;;14.18;;
59336;SDS011;45115;52.002;4.686;2023-09-08T00:31:59;23.95;;;14.30;;
59336;SDS011;45115;52.002;4.686;2023-09-08T00:34:25;22.70;;;14.48;;
59336;SDS011;45115;52.002;4.686;2023-09-08T00:36:52;23.15;;;14.23;;
59336;SDS011;45115;52.002;4.686;2023-09-08T00:39:19;22.33;;;14.48;;
59336;SDS011;45115;52.002;4.686;2023-09-08T00:41:46;21.90;;;13.48;;
59336;SDS011;45115;52.002;4.686;2023-09-08T00:44:13;23.60;;;15.02;;
59336;SDS011;45115;52.002;4.686;2023-09-08T00:46:41;21.90;;;13.90;;
59336;SDS011;45115;52.002;4.686;2023-09-08T00:49:08;22.98;;;14.32;;
59336;SDS011;45115;52.002;4.686;2023-09-08T00:51:36;23.13;;;14.75;;
59336;SDS011;45115;52.002;4.686;2023-09-08T00:54:04;22.17;;;13.98;;
59336;SDS011;45115;52.002;4.686;2023-09-08T00:56:32;25.35;;;15.05;;
59336;SDS011;45115;52.002;4.686;2023-09-08T00:58:59;24.45;;;15.23;;
59336;SDS011;45115;52.002;4.686;2023-09-08T01:01:27;24.00;;;15.00;;
59336;SDS011;45115;52.002;4.686;2023-09-08T01:03:55;24.90;;;15.40;;
59336;SDS011;45115;52.002;4.686;2023-09-08T01:06:22;25.88;;;14.57;;
59336;SDS011;45115;52.002;4.686;2023-09-08T01:08:50;24.50;;;14.98;;
59336;SDS011;45115;52.002;4.686;2023-09-08T01:11:18;22.35;;;13.70;;
59336;SDS011;45115;52.002;4.686;2023-09-08T01:13:47;23.50;;;14.82;;
59336;SDS011;45115;52.002;4.686;2023-09-08T01:16:14;24.20;;;14.95;;
59336;SDS011;45115;52.002;4.686;2023-09-08T01:18:40;24.92;;;15.45;;
59336;SDS011;45115;52.002;4.686;2023-09-08T01:21:19;23.15;;;15.75;;
59336;SDS011;45115;52.002;4.686;2023-09-08T01:24:11;23.15;;;15.05;;
59336;SDS011;45115;52.002;4.686;2023-09-08T01:26:59;24.08;;;15.00;;
59336;SDS011;45115;52.002;4.686;2023-09-08T01:29:26;22.27;;;13.82;;
59336;SDS011;45115;52.002;4.686;2023-09-08T01:31:54;21.98;;;13.40;;
59336;SDS011;45115;52.002;4.686;2023-09-08T01:34:21;25.00;;;15.35;;
59336;SDS011;45115;52.002;4.686;2023-09-08T01:36:48;26.63;;;16.13;;
59336;SDS011;45115;52.002;4.686;2023-09-08T01:39:15;25.17;;;15.45;;
59336;SDS011;45115;52.002;4.686;2023-09-08T01:41:42;23.83;;;15.65;;
59336;SDS011;45115;52.002;4.686;2023-09-08T01:44:10;23.55;;;15.32;;
59336;SDS011;45115;52.002;4.686;2023-09-08T01:46:37;26.15;;;15.57;;
59336;SDS011;45115;52.002;4.686;2023-09-08T01:49:06;26.25;;;16.65;;
59336;SDS011;45115;52.002;4.686;2023-09-08T01:51:32;25.95;;;16.45;;
59336;SDS011;45115;52.002;4.686;2023-09-08T01:54:00;22.60;;;15.00;;
59336;SDS011;45115;52.002;4.686;2023-09-08T01:56:26;23.08;;;14.48;;
59336;SDS011;45115;52.002;4.686;2023-09-08T01:58:53;25.25;;;15.73;;
59336;SDS011;45115;52.002;4.686;2023-09-08T02:01:21;24.02;;;16.13;;
59336;SDS011;45115;52.002;4.686;2023-09-08T02:03:48;25.85;;;15.75;;
59336;SDS011;45115;52.002;4.686;2023-09-08T02:06:14;24.77;;;15.98;;
59336;SDS011;45115;52.002;4.686;2023-09-08T02:08:41;24.73;;;15.80;;
59336;SDS011;45115;52.002;4.686;2023-09-08T02:11:08;25.40;;;15.23;;
59336;SDS011;45115;52.002;4.686;2023-09-08T02:13:34;25.17;;;16.30;;
59336;SDS011;45115;52.002;4.686;2023-09-08T02:16:01;24.08;;;15.57;;
59336;SDS011;45115;52.002;4.686;2023-09-08T02:18:29;26.35;;;16.13;;
59336;SDS011;45115;52.002;4.686;2023-09-08T02:20:56;24.77;;;15.40;;
59336;SDS011;45115;52.002;4.686;2023-09-08T02:23:23;26.10;;;16.48;;
59336;SDS011;45115;52.002;4.686;2023-09-08T02:25:49;24.85;;;15.95;;
59336;SDS011;45115;52.002;4.686;2023-09-08T02:28:16;25.73;;;15.07;;
59336;SDS011;45115;52.002;4.686;2023-09-08T02:30:43;24.98;;;15.43;;
59336;SDS011;45115;52.002;4.686;2023-09-08T02:33:09;24.25;;;14.82;;
59336;SDS011;45115;52.002;4.686;2023-09-08T02:35:39;25.77;;;15.13;;
59336;SDS011;45115;52.002;4.686;2023-09-08T02:38:07;23.70;;;14.95;;
59336;SDS011;45115;52.002;4.686;2023-09-08T02:40:33;34.03;;;17.40;;
59336;SDS011;45115;52.002;4.686;2023-09-08T02:43:00;23.75;;;15.38;;
59336;SDS011;45115;52.002;4.686;2023-09-08T02:45:27;26.42;;;15.80;;
59336;SDS011;45115;52.002;4.686;2023-09-08T02:47:54;23.58;;;14.85;;
59336;SDS011;45115;52.002;4.686;2023-09-08T02:50:22;21.30;;;13.90;;
59336;SDS011;45115;52.002;4.686;2023-09-08T02:52:50;23.25;;;14.55;;
59336;SDS011;45115;52.002;4.686;2023-09-08T02:55:17;24.05;;;16.05;;
59336;SDS011;45115;52.002;4.686;2023-09-08T02:57:44;25.20;;;16.23;;
59336;SDS011;45115;52.002;4.686;2023-09-08T03:00:11;27.10;;;16.33;;
59336;SDS011;45115;52.002;4.686;2023-09-08T03:02:38;25.13;;;16.02;;
59336;SDS011;45115;52.002;4.686;2023-09-08T03:05:05;25.80;;;16.75;;
59336;SDS011;45115;52.002;4.686;2023-09-08T03:07:34;25.40;;;16.15;;
59336;SDS011;45115;52.002;4.686;2023-09-08T03:10:04;27.15;;;16.80;;
59336;SDS011;45115;52.002;4.686;2023-09-08T03:12:32;24.98;;;15.77;;
59336;SDS011;45115;52.002;4.686;2023-09-08T03:15:00;24.95;;;16.23;;
59336;SDS011;45115;52.002;4.686;2023-09-08T03:17:27;23.45;;;15.93;;
59336;SDS011;45115;52.002;4.686;2023-09-08T03:19:54;25.75;;;16.67;;
59336;SDS011;45115;52.002;4.686;2023-09-08T03:22:21;23.95;;;14.98;;
59336;SDS011;45115;52.002;4.686;2023-09-08T03:24:49;25.30;;;15.82;;
59336;SDS011;45115;52.002;4.686;2023-09-08T03:27:18;25.38;;;14.23;;
59336;SDS011;45115;52.002;4.686;2023-09-08T03:29:44;23.88;;;15.23;;
59336;SDS011;45115;52.002;4.686;2023-09-08T03:32:11;25.50;;;15.38;;
59336;SDS011;45115;52.002;4.686;2023-09-08T03:34:38;25.50;;;15.95;;
59336;SDS011;45115;52.002;4.686;2023-09-08T03:37:06;24.55;;;15.88;;
59336;SDS011;45115;52.002;4.686;2023-09-08T03:39:33;24.55;;;15.90;;
59336;SDS011;45115;52.002;4.686;2023-09-08T03:42:01;26.00;;;15.68;;
59336;SDS011;45115;52.002;4.686;2023-09-08T03:44:29;24.95;;;15.48;;
59336;SDS011;45115;52.002;4.686;2023-09-08T03:46:56;24.80;;;16.25;;
59336;SDS011;45115;52.002;4.686;2023-09-08T03:49:23;25.52;;;15.73;;
59336;SDS011;45115;52.002;4.686;2023-09-08T03:51:50;27.50;;;16.13;;
59336;SDS011;45115;52.002;4.686;2023-09-08T03:54:17;21.70;;;15.82;;
59336;SDS011;45115;52.002;4.686;2023-09-08T03:56:43;24.35;;;15.48;;
59336;SDS011;45115;52.002;4.686;2023-09-08T03:59:10;24.30;;;15.07;;
59336;SDS011;45115;52.002;4.686;2023-09-08T04:01:38;23.50;;;14.88;;
59336;SDS011;45115;52.002;4.686;2023-09-08T04:04:05;24.88;;;15.95;;
59336;SDS011;45115;52.002;4.686;2023-09-08T04:06:32;23.52;;;14.95;;
59336;SDS011;45115;52.002;4.686;2023-09-08T04:08:59;27.17;;;16.55;;
59336;SDS011;45115;52.002;4.686;2023-09-08T04:11:26;25.55;;;15.43;;
59336;SDS011;45115;52.002;4.686;2023-09-08T04:13:52;23.40;;;15.95;;
59336;SDS011;45115;52.002;4.686;2023-09-08T04:16:19;24.73;;;15.15;;
59336;SDS011;45115;52.002;4.686;2023-09-08T04:18:47;24.80;;;15.35;;
59336;SDS011;45115;52.002;4.686;2023-09-08T04:21:14;23.83;;;15.18;;
59336;SDS011;45115;52.002;4.686;2023-09-08T04:23:41;23.33;;;14.85;;
59336;SDS011;45115;52.002;4.686;2023-09-08T04:26:07;25.00;;;16.08;;
59336;SDS011;45115;52.002;4.686;2023-09-08T04:28:34;23.58;;;14.93;;
59336;SDS011;45115;52.002;4.686;2023-09-08T04:31:01;23.13;;;14.85;;
59336;SDS011;45115;52.002;4.686;2023-09-08T04:33:29;22.95;;;15.25;;
59336;SDS011;45115;52.002;4.686;2023-09-08T04:35:57;23.80;;;14.88;;
59336;SDS011;45115;52.002;4.686;2023-09-08T04:38:24;22.33;;;14.52;;
59336;SDS011;45115;52.002;4.686;2023-09-08T04:40:50;25.40;;;15.48;;
59336;SDS011;45115;52.002;4.686;2023-09-08T04:43:17;21.92;;;14.27;;
59336;SDS011;45115;52.002;4.686;2023-09-08T04:45:44;28.48;;;16.17;;
59336;SDS011;45115;52.002;4.686;2023-09-08T04:48:11;24.15;;;14.93;;
59336;SDS011;45115;52.002;4.686;2023-09-08T04:50:38;25.40;;;15.43;;
59336;SDS011;45115;52.002;4.686;2023-09-08T04:53:07;24.65;;;15.40;;
59336;SDS011;45115;52.002;4.686;2023-09-08T04:55:34;24.13;;;15.85;;
59336;SDS011;45115;52.002;4.686;2023-09-08T04:58:03;24.45;;;15.70;;
59336;SDS011;45115;52.002;4.686;2023-09-08T05:00:30;25.20;;;16.17;;
59336;SDS011;45115;52.002;4.686;2023-09-08T05:02:58;23.45;;;15.52;;
59336;SDS011;45115;52.002;4.686;2023-09-08T05:05:25;24.50;;;15.07;;
59336;SDS011;45115;52.002;4.686;2023-09-08T05:07:52;22.98;;;14.95;;
59336;SDS011;45115;52.002;4.686;2023-09-08T05:10:23;26.30;;;15.73;;
59336;SDS011;45115;52.002;4.686;2023-09-08T05:12:50;25.70;;;16.00;;
59336;SDS011;45115;52.002;4.686;2023-09-08T05:15:17;23.55;;;15.73;;
59336;SDS011;45115;52.002;4.686;2023-09-08T05:17:49;25.63;;;16.70;;
59336;SDS011;45115;52.002;4.686;2023-09-08T05:20:18;24.40;;;16.02;;
59336;SDS011;45115;52.002;4.686;2023-09-08T05:22:45;25.48;;;15.57;;
59336;SDS011;45115;52.002;4.686;2023-09-08T05:25:11;23.60;;;16.17;;
59336;SDS011;45115;52.002;4.686;2023-09-08T05:27:40;25.17;;;16.23;;
59336;SDS011;45115;52.002;4.686;2023-09-08T05:30:07;24.88;;;15.82;;
59336;SDS011;45115;52.002;4.686;2023-09-08T05:32:35;23.95;;;15.35;;
59336;SDS011;45115;52.002;4.686;2023-09-08T05:35:03;24.67;;;15.73;;
59336;SDS011;45115;52.002;4.686;2023-09-08T05:37:30;27.02;;;16.70;;
59336;SDS011;45115;52.002;4.686;2023-09-08T05:39:57;23.70;;;15.57;;
59336;SDS011;45115;52.002;4.686;2023-09-08T05:42:23;23.58;;;15.70;;
59336;SDS011;45115;52.002;4.686;2023-09-08T05:44:51;24.27;;;15.60;;
59336;SDS011;45115;52.002;4.686;2023-09-08T05:47:20;27.70;;;16.08;;
59336;SDS011;45115;52.002;4.686;2023-09-08T05:49:47;25.38;;;15.45;;
59336;SDS011;45115;52.002;4.686;2023-09-08T05:52:14;24.85;;;15.23;;
59336;SDS011;45115;52.002;4.686;2023-09-08T05:54:42;24.65;;;14.70;;
59336;SDS011;45115;52.002;4.686;2023-09-08T05:57:10;24.55;;;15.32;;
59336;SDS011;45115;52.002;4.686;2023-09-08T05:59:37;22.58;;;15.05;;
59336;SDS011;45115;52.002;4.686;2023-09-08T06:02:08;21.65;;;14.43;;
59336;SDS011;45115;52.002;4.686;2023-09-08T06:04:35;25.05;;;15.15;;
59336;SDS011;45115;52.002;4.686;2023-09-08T06:07:01;23.15;;;15.05;;
59336;SDS011;45115;52.002;4.686;2023-09-08T06:09:30;27.02;;;15.88;;
59336;SDS011;45115;52.002;4.686;2023-09-08T06:11:57;23.13;;;15.07;;
59336;SDS011;45115;52.002;4.686;2023-09-08T06:14:23;24.13;;;15.27;;
59336;SDS011;45115;52.002;4.686;2023-09-08T06:16:50;21.73;;;13.90;;
59336;SDS011;45115;52.002;4.686;2023-09-08T06:19:18;22.42;;;14.32;;
59336;SDS011;45115;52.002;4.686;2023-09-08T06:21:45;24.20;;;14.45;;
59336;SDS011;45115;52.002;4.686;2023-09-08T06:24:12;24.25;;;13.93;;
59336;SDS011;45115;52.002;4.686;2023-09-08T06:26:39;24.13;;;15.15;;
59336;SDS011;45115;52.002;4.686;2023-09-08T06:29:07;23.70;;;15.38;;
59336;SDS011;45115;52.002;4.686;2023-09-08T06:31:34;25.05;;;15.63;;
59336;SDS011;45115;52.002;4.686;2023-09-08T06:34:01;24.48;;;15.27;;
59336;SDS011;45115;52.002;4.686;2023-09-08T06:36:29;24.95;;;15.13;;
59336;SDS011;45115;52.002;4.686;2023-09-08T06:38:56;21.58;;;14.43;;
59336;SDS011;45115;52.002;4.686;2023-09-08T06:41:23;26.10;;;15.02;;
59336;SDS011;45115;52.002;4.686;2023-09-08T06:43:53;22.60;;;15.43;;
59336;SDS011;45115;52.002;4.686;2023-09-08T06:46:21;25.40;;;16.15;;
59336;SDS011;45115;52.002;4.686;2023-09-08T06:48:48;23.23;;;14.90;;
59336;SDS011;45115;52.002;4.686;2023-09-08T06:51:15;23.40;;;14.95;;
59336;SDS011;45115;52.002;4.686;2023-09-08T06:53:44;24.95;;;15.48;;
59336;SDS011;45115;52.002;4.686;2023-09-08T06:56:11;23.10;;;14.73;;
59336;SDS011;45115;52.002;4.686;2023-09-08T06:58:38;24.23;;;15.43;;
59336;SDS011;45115;52.002;4.686;2023-09-08T07:01:04;25.88;;;15.35;;
59336;SDS011;45115;52.002;4.686;2023-09-08T07:03:31;23.63;;;14.65;;
59336;SDS011;45115;52.002;4.686;2023-09-08T07:06:03;23.98;;;15.25;;
59336;SDS011;45115;52.002;4.686;2023-09-08T07:08:30;22.73;;;14.73;;
59336;SDS011;45115;52.002;4.686;2023-09-08T07:10:58;22.48;;;14.80;;
59336;SDS011;45115;52.002;4.686;2023-09-08T07:13:24;23.80;;;14.75;;
59336;SDS011;45115;52.002;4.686;2023-09-08T07:15:51;22.75;;;14.35;;
59336;SDS011;45115;52.002;4.686;2023-09-08T07:18:18;22.13;;;14.75;;
59336;SDS011;45115;52.002;4.686;2023-09-08T07:20:46;23.35;;;16.10;;
59336;SDS011;45115;52.002;4.686;2023-09-08T07:23:13;21.23;;;14.40;;
59336;SDS011;45115;52.002;4.686;2023-09-08T07:25:40;23.50;;;15.25;;
59336;SDS011;45115;52.002;4.686;2023-09-08T07:28:12;25.10;;;16.05;;
59336;SDS011;45115;52.002;4.686;2023-09-08T07:30:39;22.67;;;15.43;;
59336;SDS011;45115;52.002;4.686;2023-09-08T07:33:06;22.92;;;14.63;;
59336;SDS011;45115;52.002;4.686;2023-09-08T07:35:32;23.80;;;15.63;;
59336;SDS011;45115;52.002;4.686;2023-09-08T07:38:02;23.48;;;15.38;;
59336;SDS011;45115;52.002;4.686;2023-09-08T07:40:30;22.50;;;15.32;;
59336;SDS011;45115;52.002;4.686;2023-09-08T07:42:56;20.35;;;13.98;;
59336;SDS011;45115;52.002;4.686;2023-09-08T07:45:24;20.35;;;13.93;;
59336;SDS011;45115;52.002;4.686;2023-09-08T07:47:51;21.60;;;14.30;;
59336;SDS011;45115;52.002;4.686;2023-09-08T07:50:19;21.10;;;14.98;;
59336;SDS011;45115;52.002;4.686;2023-09-08T07:52:47;20.98;;;14.70;;
59336;SDS011;45115;52.002;4.686;2023-09-08T07:55:15;21.17;;;14.88;;
59336;SDS011;45115;52.002;4.686;2023-09-08T07:57:43;19.52;;;14.00;;
59336;SDS011;45115;52.002;4.686;2023-09-08T08:00:12;19.20;;;13.13;;
59336;SDS011;45115;52.002;4.686;2023-09-08T08:02:42;22.52;;;16.33;;
59336;SDS011;45115;52.002;4.686;2023-09-08T08:05:09;22.58;;;15.35;;
59336;SDS011;45115;52.002;4.686;2023-09-08T08:07:37;22.90;;;16.70;;
59336;SDS011;45115;52.002;4.686;2023-09-08T08:10:04;22.10;;;16.23;;
59336;SDS011;45115;52.002;4.686;2023-09-08T08:12:32;18.35;;;13.30;;
59336;SDS011;45115;52.002;4.686;2023-09-08T08:14:58;20.38;;;14.98;;
59336;SDS011;45115;52.002;4.686;2023-09-08T08:17:25;19.08;;;13.75;;
59336;SDS011;45115;52.002;4.686;2023-09-08T08:19:54;21.23;;;16.23;;
59336;SDS011;45115;52.002;4.686;2023-09-08T08:22:21;21.42;;;14.25;;
59336;SDS011;45115;52.002;4.686;2023-09-08T08:24:48;17.83;;;13.15;;
59336;SDS011;45115;52.002;4.686;2023-09-08T08:27:15;21.80;;;15.25;;
59336;SDS011;45115;52.002;4.686;2023-09-08T08:29:41;21.23;;;15.93;;
59336;SDS011;45115;52.002;4.686;2023-09-08T08:32:08;19.23;;;13.73;;
59336;SDS011;45115;52.002;4.686;2023-09-08T08:34:35;18.23;;;13.88;;
59336;SDS011;45115;52.002;4.686;2023-09-08T08:37:03;20.33;;;14.90;;
59336;SDS011;45115;52.002;4.686;2023-09-08T08:39:29;20.58;;;14.82;;
59336;SDS011;45115;52.002;4.686;2023-09-08T08:41:56;19.50;;;14.90;;
59336;SDS011;45115;52.002;4.686;2023-09-08T08:44:23;21.30;;;14.82;;
59336;SDS011;45115;52.002;4.686;2023-09-08T08:46:51;19.95;;;14.52;;
59336;SDS011;45115;52.002;4.686;2023-09-08T08:49:19;22.25;;;15.60;;
59336;SDS011;45115;52.002;4.686;2023-09-08T08:51:47;25.13;;;15.95;;
59336;SDS011;45115;52.002;4.686;2023-09-08T08:54:19;21.80;;;16.23;;
59336;SDS011;45115;52.002;4.686;2023-09-08T08:56:46;21.00;;;16.05;;
59336;SDS011;45115;52.002;4.686;2023-09-08T08:59:14;20.48;;;15.30;;
59336;SDS011;45115;52.002;4.686;2023-09-08T09:01:42;20.88;;;14.65;;
59336;SDS011;45115;52.002;4.686;2023-09-08T09:04:09;22.50;;;16.35;;
59336;SDS011;45115;52.002;4.686;2023-09-08T09:06:37;23.15;;;17.42;;
59336;SDS011;45115;52.002;4.686;2023-09-08T09:09:04;21.98;;;16.38;;
59336;SDS011;45115;52.002;4.686;2023-09-08T09:11:32;21.33;;;15.65;;
59336;SDS011;45115;52.002;4.686;2023-09-08T09:13:59;19.73;;;14.30;;
59336;SDS011;45115;52.002;4.686;2023-09-08T09:16:25;23.50;;;16.00;;
59336;SDS011;45115;52.002;4.686;2023-09-08T09:18:55;21.55;;;15.68;;
59336;SDS011;45115;52.002;4.686;2023-09-08T09:21:23;24.00;;;16.08;;
59336;SDS011;45115;52.002;4.686;2023-09-08T09:23:50;25.13;;;16.48;;
59336;SDS011;45115;52.002;4.686;2023-09-08T09:26:23;23.35;;;16.73;;
59336;SDS011;45115;52.002;4.686;2023-09-08T09:28:53;23.58;;;17.83;;
59336;SDS011;45115;52.002;4.686;2023-09-08T09:31:23;22.80;;;16.88;;
59336;SDS011;45115;52.002;4.686;2023-09-08T09:34:01;22.77;;;17.13;;
59336;SDS011;45115;52.002;4.686;2023-09-08T09:36:30;25.20;;;17.92;;
59336;SDS011;45115;52.002;4.686;2023-09-08T09:38:58;25.80;;;17.52;;
59336;SDS011;45115;52.002;4.686;2023-09-08T09:41:25;24.40;;;16.33;;
59336;SDS011;45115;52.002;4.686;2023-09-08T09:43:55;23.60;;;16.05;;
59336;SDS011;45115;52.002;4.686;2023-09-08T09:46:22;21.15;;;16.73;;
59336;SDS011;45115;52.002;4.686;2023-09-08T09:48:50;22.98;;;16.42;;
59336;SDS011;45115;52.002;4.686;2023-09-08T09:51:18;21.52;;;15.73;;
59336;SDS011;45115;52.002;4.686;2023-09-08T09:53:46;20.55;;;14.70;;
59336;SDS011;45115;52.002;4.686;2023-09-08T09:56:13;19.90;;;14.88;;
59336;SDS011;45115;52.002;4.686;2023-09-08T09:58:42;23.08;;;16.92;;
59336;SDS011;45115;52.002;4.686;2023-09-08T10:01:11;24.20;;;16.30;;
59336;SDS011;45115;52.002;4.686;2023-09-08T10:03:39;23.05;;;15.88;;
59336;SDS011;45115;52.002;4.686;2023-09-08T10:06:06;22.80;;;15.35;;
59336;SDS011;45115;52.002;4.686;2023-09-08T10:08:33;20.73;;;14.27;;
59336;SDS011;45115;52.002;4.686;2023-09-08T10:11:03;20.17;;;15.05;;
59336;SDS011;45115;52.002;4.686;2023-09-08T10:13:33;19.60;;;14.60;;
59336;SDS011;45115;52.002;4.686;2023-09-08T10:16:05;19.73;;;13.02;;
59336;SDS011;45115;52.002;4.686;2023-09-08T10:18:36;20.92;;;14.73;;
59336;SDS011;45115;52.002;4.686;2023-09-08T10:21:05;18.35;;;12.15;;
59336;SDS011;45115;52.002;4.686;2023-09-08T10:23:35;15.93;;;11.55;;
59336;SDS011;45115;52.002;4.686;2023-09-08T10:26:06;19.48;;;14.98;;
59336;SDS011;45115;52.002;4.686;2023-09-08T10:28:36;17.75;;;12.95;;
59336;SDS011;45115;52.002;4.686;2023-09-08T10:31:03;20.73;;;13.98;;
59336;SDS011;45115;52.002;4.686;2023-09-08T10:33:30;18.27;;;12.25;;
59336;SDS011;45115;52.002;4.686;2023-09-08T10:36:00;19.92;;;14.27;;
59336;SDS011;45115;52.002;4.686;2023-09-08T10:38:31;16.45;;;10.32;;
59336;SDS011;45115;52.002;4.686;2023-09-08T10:41:25;16.08;;;10.88;;
59336;SDS011;45115;52.002;4.686;2023-09-08T10:43:54;19.23;;;11.48;;
59336;SDS011;45115;52.002;4.686;2023-09-08T10:46:23;14.95;;;10.32;;
59336;SDS011;45115;52.002;4.686;2023-09-08T10:48:53;16.85;;;12.48;;
59336;SDS011;45115;52.002;4.686;2023-09-08T10:51:21;15.60;;;10.88;;
59336;SDS011;45115;52.002;4.686;2023-09-08T10:53:50;16.65;;;11.82;;
59336;SDS011;45115;52.002;4.686;2023-09-08T10:56:17;16.77;;;11.13;;
59336;SDS011;45115;52.002;4.686;2023-09-08T10:58:48;16.98;;;12.70;;
59336;SDS011;45115;52.002;4.686;2023-09-08T11:01:17;13.93;;;10.40;;
59336;SDS011;45115;52.002;4.686;2023-09-08T11:03:47;17.70;;;11.80;;
59336;SDS011;45115;52.002;4.686;2023-09-08T11:06:16;16.30;;;10.55;;
59336;SDS011;45115;52.002;4.686;2023-09-08T11:08:45;16.85;;;11.27;;
59336;SDS011;45115;52.002;4.686;2023-09-08T11:11:13;15.35;;;9.18;;
59336;SDS011;45115;52.002;4.686;2023-09-08T11:13:40;15.32;;;10.10;;
59336;SDS011;45115;52.002;4.686;2023-09-08T11:18:37;14.40;;;9.45;;
59336;SDS011;45115;52.002;4.686;2023-09-08T11:21:07;16.48;;;11.15;;
59336;SDS011;45115;52.002;4.686;2023-09-08T11:23:34;16.67;;;11.32;;
59336;SDS011;45115;52.002;4.686;2023-09-08T11:26:03;14.27;;;9.13;;
59336;SDS011;45115;52.002;4.686;2023-09-08T11:28:31;14.93;;;10.13;;
59336;SDS011;45115;52.002;4.686;2023-09-08T11:30:58;14.13;;;8.88;;
59336;SDS011;45115;52.002;4.686;2023-09-08T11:33:25;11.88;;;8.48;;
59336;SDS011;45115;52.002;4.686;2023-09-08T11:35:52;15.18;;;9.77;;
59336;SDS011;45115;52.002;4.686;2023-09-08T11:38:24;11.70;;;9.13;;
59336;SDS011;45115;52.002;4.686;2023-09-08T11:40:51;14.02;;;9.82;;
59336;SDS011;45115;52.002;4.686;2023-09-08T11:43:20;15.73;;;10.45;;
59336;SDS011;45115;52.002;4.686;2023-09-08T11:45:48;13.57;;;9.68;;
59336;SDS011;45115;52.002;4.686;2023-09-08T11:48:14;15.80;;;9.75;;
59336;SDS011;45115;52.002;4.686;2023-09-08T11:50:42;12.35;;;9.27;;
59336;SDS011;45115;52.002;4.686;2023-09-08T11:53:09;16.65;;;11.30;;
59336;SDS011;45115;52.002;4.686;2023-09-08T11:55:36;15.30;;;10.73;;
59336;SDS011;45115;52.002;4.686;2023-09-08T11:58:03;14.38;;;9.50;;
59336;SDS011;45115;52.002;4.686;2023-09-08T12:00:32;13.52;;;8.95;;
59336;SDS011;45115;52.002;4.686;2023-09-08T12:03:09;17.10;;;12.07;;
59336;SDS011;45115;52.002;4.686;2023-09-08T12:05:36;17.08;;;10.02;;
59336;SDS011;45115;52.002;4.686;2023-09-08T12:08:04;14.55;;;10.00;;
59336;SDS011;45115;52.002;4.686;2023-09-08T12:10:37;15.75;;;10.25;;
59336;SDS011;45115;52.002;4.686;2023-09-08T12:13:04;14.27;;;10.13;;
59336;SDS011;45115;52.002;4.686;2023-09-08T12:15:33;13.40;;;8.85;;
59336;SDS011;45115;52.002;4.686;2023-09-08T12:18:00;13.80;;;9.82;;
59336;SDS011;45115;52.002;4.686;2023-09-08T12:20:28;13.70;;;9.30;;
59336;SDS011;45115;52.002;4.686;2023-09-08T12:22:56;13.98;;;9.27;;
59336;SDS011;45115;52.002;4.686;2023-09-08T12:25:26;13.43;;;8.57;;
59336;SDS011;45115;52.002;4.686;2023-09-08T12:27:53;15.70;;;10.38;;
59336;SDS011;45115;52.002;4.686;2023-09-08T12:30:21;13.98;;;10.15;;
59336;SDS011;45115;52.002;4.686;2023-09-08T12:32:56;14.05;;;9.30;;
59336;SDS011;45115;52.002;4.686;2023-09-08T12:35:24;13.80;;;8.82;;
59336;SDS011;45115;52.002;4.686;2023-09-08T12:37:52;12.45;;;9.20;;
59336;SDS011;45115;52.002;4.686;2023-09-08T12:40:20;16.70;;;9.18;;
59336;SDS011;45115;52.002;4.686;2023-09-08T12:42:47;12.52;;;8.88;;
59336;SDS011;45115;52.002;4.686;2023-09-08T12:45:14;13.00;;;9.38;;
59336;SDS011;45115;52.002;4.686;2023-09-08T12:47:41;13.07;;;8.45;;
59336;SDS011;45115;52.002;4.686;2023-09-08T12:50:10;12.63;;;9.27;;
59336;SDS011;45115;52.002;4.686;2023-09-08T12:52:38;13.50;;;9.18;;
59336;SDS011;45115;52.002;4.686;2023-09-08T12:55:05;15.15;;;9.48;;
59336;SDS011;45115;52.002;4.686;2023-09-08T12:57:32;13.50;;;8.45;;
59336;SDS011;45115;52.002;4.686;2023-09-08T12:59:59;12.10;;;8.20;;
59336;SDS011;45115;52.002;4.686;2023-09-08T13:02:26;14.73;;;9.70;;
59336;SDS011;45115;52.002;4.686;2023-09-08T13:04:52;14.50;;;9.32;;
59336;SDS011;45115;52.002;4.686;2023-09-08T13:07:21;14.00;;;9.27;;
59336;SDS011;45115;52.002;4.686;2023-09-08T13:09:48;14.90;;;9.63;;
59336;SDS011;45115;52.002;4.686;2023-09-08T13:12:15;14.23;;;8.43;;
59336;SDS011;45115;52.002;4.686;2023-09-08T13:14:42;12.95;;;9.02;;
59336;SDS011;45115;52.002;4.686;2023-09-08T13:17:09;15.57;;;9.75;;
59336;SDS011;45115;52.002;4.686;2023-09-08T13:19:36;13.90;;;9.25;;
59336;SDS011;45115;52.002;4.686;2023-09-08T13:22:03;13.32;;;8.85;;
59336;SDS011;45115;52.002;4.686;2023-09-08T13:24:32;12.07;;;8.35;;
59336;SDS011;45115;52.002;4.686;2023-09-08T13:26:59;13.93;;;9.45;;
59336;SDS011;45115;52.002;4.686;2023-09-08T13:29:26;13.40;;;9.10;;
59336;SDS011;45115;52.002;4.686;2023-09-08T13:31:53;13.93;;;9.20;;
59336;SDS011;45115;52.002;4.686;2023-09-08T13:34:20;12.80;;;8.60;;
59336;SDS011;45115;52.002;4.686;2023-09-08T13:36:46;13.18;;;9.10;;
59336;SDS011;45115;52.002;4.686;2023-09-08T13:39:13;15.57;;;9.20;;
59336;SDS011;45115;52.002;4.686;2023-09-08T13:41:48;15.48;;;9.18;;
59336;SDS011;45115;52.002;4.686;2023-09-08T13:44:16;14.93;;;9.30;;
59336;SDS011;45115;52.002;4.686;2023-09-08T13:46:43;12.30;;;8.27;;
59336;SDS011;45115;52.002;4.686;2023-09-08T13:49:10;12.18;;;8.27;;
59336;SDS011;45115;52.002;4.686;2023-09-08T13:51:37;11.25;;;7.75;;
59336;SDS011;45115;52.002;4.686;2023-09-08T13:54:04;9.95;;;6.95;;
59336;SDS011;45115;52.002;4.686;2023-09-08T13:56:31;9.60;;;6.22;;
59336;SDS011;45115;52.002;4.686;2023-09-08T13:58:59;8.88;;;6.15;;
59336;SDS011;45115;52.002;4.686;2023-09-08T14:01:26;10.90;;;6.50;;
59336;SDS011;45115;52.002;4.686;2023-09-08T14:03:54;8.90;;;6.20;;
59336;SDS011;45115;52.002;4.686;2023-09-08T14:06:21;9.60;;;5.88;;
59336;SDS011;45115;52.002;4.686;2023-09-08T14:08:49;8.00;;;6.28;;
59336;SDS011;45115;52.002;4.686;2023-09-08T14:11:15;10.85;;;6.18;;
59336;SDS011;45115;52.002;4.686;2023-09-08T14:13:42;9.48;;;5.85;;
59336;SDS011;45115;52.002;4.686;2023-09-08T14:16:11;8.77;;;5.40;;
59336;SDS011;45115;52.002;4.686;2023-09-08T14:18:37;9.32;;;5.75;;
59336;SDS011;45115;52.002;4.686;2023-09-08T14:21:04;8.20;;;6.32;;
59336;SDS011;45115;52.002;4.686;2023-09-08T14:23:31;8.52;;;6.07;;
59336;SDS011;45115;52.002;4.686;2023-09-08T14:25:59;9.35;;;6.13;;
59336;SDS011;45115;52.002;4.686;2023-09-08T14:28:26;9.85;;;5.93;;